createdAt,value
2023-03-07T00:01:01.692Z,86.04
2023-03-07T00:02:04.685Z,86.56
2023-03-07T00:03:07.833Z,86.83
2023-03-07T00:04:10.789Z,87.06
2023-03-07T00:05:15.412Z,87.05
2023-03-07T00:06:18.375Z,87.15
2023-03-07T00:07:21.821Z,87.42
2023-03-07T00:08:24.741Z,87.01
2023-03-07T00:09:27.632Z,87.31
2023-03-07T00:10:30.964Z,87.26
2023-03-07T00:11:34.277Z,87.07
2023-03-07T00:12:37.214Z,86.89
2023-03-07T00:13:40.210Z,87.15
2023-03-07T00:14:43.110Z,86.92
2023-03-07T00:15:46.007Z,86.91
2023-03-07T00:16:51.726Z,87.36
2023-03-07T00:17:54.666Z,87.43
2023-03-07T00:18:57.634Z,87.39
2023-03-07T00:20:00.613Z,87.37
2023-03-07T00:21:07.478Z,87.30
2023-03-07T00:22:14.151Z,87.08
2023-03-07T00:23:17.514Z,87.33
2023-03-07T00:24:20.639Z,87.15
2023-03-07T00:25:23.588Z,87.19
2023-03-07T00:26:27.858Z,87.59
2023-03-07T00:27:32.188Z,87.99
2023-03-07T00:28:35.810Z,87.47
2023-03-07T00:29:39.080Z,87.36
2023-03-07T00:30:42.069Z,87.16
2023-03-07T00:31:45.274Z,87.02
2023-03-07T00:32:48.435Z,87.00
2023-03-07T00:33:51.337Z,88.35
2023-03-07T00:34:58.009Z,89.52
2023-03-07T00:36:03.441Z,89.55
2023-03-07T00:37:06.432Z,89.31
2023-03-07T00:38:09.725Z,89.36
2023-03-07T00:39:12.750Z,89.57
2023-03-07T00:40:16.058Z,89.32
2023-03-07T00:41:27.727Z,88.65
2023-03-07T00:42:30.543Z,87.89
2023-03-07T00:43:34.602Z,88.17
2023-03-07T00:44:37.622Z,87.91
2023-03-07T00:45:40.714Z,87.58
2023-03-07T00:46:43.831Z,88.31
2023-03-07T00:47:47.200Z,88.35
2023-03-07T00:48:50.178Z,88.66
2023-03-07T00:49:53.021Z,88.92
2023-03-07T00:50:57.080Z,88.58
2023-03-07T00:52:00.005Z,88.21
2023-03-07T00:53:02.960Z,88.36
2023-03-07T00:54:05.822Z,88.53
2023-03-07T00:55:09.273Z,88.80
2023-03-07T00:56:18.088Z,88.56
2023-03-07T00:57:21.020Z,88.87
2023-03-07T00:58:24.224Z,88.90
2023-03-07T00:59:27.522Z,89.20
2023-03-07T01:00:30.468Z,89.32
2023-03-07T01:01:33.589Z,89.05
2023-03-07T01:02:36.608Z,89.08
2023-03-07T01:03:40.082Z,88.89
2023-03-07T01:04:43.140Z,88.71
2023-03-07T01:05:46.446Z,88.96
2023-03-07T01:06:50.759Z,89.38
2023-03-07T01:07:53.897Z,89.29
2023-03-07T01:09:04.566Z,88.67
2023-03-07T01:10:07.929Z,88.34
2023-03-07T01:11:11.696Z,88.11
2023-03-07T01:12:14.855Z,87.49
2023-03-07T01:13:19.696Z,87.25
2023-03-07T01:14:23.117Z,87.45
2023-03-07T01:15:26.259Z,88.00
2023-03-07T01:16:31.864Z,88.12
2023-03-07T01:17:34.929Z,88.04
2023-03-07T01:18:38.157Z,88.32
2023-03-07T01:19:41.358Z,88.30
2023-03-07T01:20:44.769Z,88.55
2023-03-07T01:21:47.768Z,88.09
2023-03-07T01:22:50.862Z,88.14
2023-03-07T01:23:54.678Z,87.82
2023-03-07T01:24:57.777Z,87.84
2023-03-07T01:26:00.730Z,87.83
2023-03-07T01:27:03.740Z,87.74
2023-03-07T01:28:07.538Z,87.70
2023-03-07T01:29:11.877Z,87.40
2023-03-07T01:30:15.442Z,86.80
2023-03-07T01:31:18.643Z,87.56
2023-03-07T01:32:21.617Z,88.74
2023-03-07T01:33:24.781Z,89.14
2023-03-07T01:34:27.712Z,88.73
2023-03-07T01:35:30.971Z,88.81
2023-03-07T01:36:35.831Z,88.58
2023-03-07T01:37:38.789Z,87.62
2023-03-07T01:38:41.872Z,88.04
2023-03-07T01:39:44.786Z,88.66
2023-03-07T01:40:47.720Z,88.62
2023-03-07T01:41:50.901Z,88.51
2023-03-07T01:42:54.152Z,88.97
2023-03-07T01:43:57.059Z,88.08
2023-03-07T01:45:01.196Z,88.55
2023-03-07T01:46:19.115Z,89.24
2023-03-07T01:47:23.639Z,89.51
2023-03-07T01:48:26.733Z,89.31
2023-03-07T01:49:35.528Z,89.57
2023-03-07T01:50:39.131Z,89.30
2023-03-07T01:51:45.428Z,89.22
2023-03-07T01:52:54.276Z,89.17
2023-03-07T01:53:59.210Z,89.60
2023-03-07T01:55:32.458Z,90.10
2023-03-07T01:56:38.777Z,89.70
2023-03-07T01:57:43.610Z,89.69
2023-03-07T01:58:47.188Z,89.84
2023-03-07T01:59:54.600Z,89.76
2023-03-07T02:00:57.966Z,89.49
2023-03-07T02:02:07.017Z,89.32
2023-03-07T02:03:36.010Z,88.71
2023-03-07T02:04:49.885Z,88.27
2023-03-07T02:06:06.187Z,88.43
2023-03-07T02:07:11.240Z,88.63
2023-03-07T02:08:15.435Z,88.57
2023-03-07T02:09:21.506Z,88.64
2023-03-07T02:10:26.128Z,88.72
2023-03-07T02:11:29.867Z,88.36
2023-03-07T02:12:33.479Z,88.28
2023-03-07T02:13:36.482Z,87.89
2023-03-07T02:14:44.635Z,88.02
2023-03-07T02:15:48.063Z,88.05
2023-03-07T02:16:51.572Z,87.57
2023-03-07T02:17:55.427Z,87.49
2023-03-07T02:18:59.546Z,87.37
2023-03-07T02:20:07.418Z,87.27
2023-03-07T02:21:29.097Z,87.35
2023-03-07T02:22:32.176Z,87.34
2023-03-07T02:24:00.030Z,87.46
2023-03-07T02:25:36.676Z,87.86
2023-03-07T02:26:46.830Z,88.10
2023-03-07T02:27:53.648Z,88.21
2023-03-07T02:28:58.374Z,88.50
2023-03-07T02:30:01.392Z,88.00
2023-03-07T02:31:07.153Z,87.67
2023-03-07T02:32:10.397Z,87.90
2023-03-07T02:33:13.325Z,87.31
2023-03-07T02:34:20.190Z,87.29
2023-03-07T02:35:25.262Z,87.49
2023-03-07T02:36:35.446Z,87.68
2023-03-07T02:37:39.619Z,87.77
2023-03-07T02:38:46.474Z,87.31
2023-03-07T02:39:49.594Z,87.11
2023-03-07T02:40:57.308Z,87.33
2023-03-07T02:42:06.312Z,87.59
2023-03-07T02:43:12.251Z,87.50
2023-03-07T02:44:15.147Z,87.41
2023-03-07T02:45:19.454Z,87.50
2023-03-07T02:46:22.706Z,86.91
2023-03-07T02:47:26.137Z,86.67
2023-03-07T02:48:29.062Z,87.02
2023-03-07T02:49:32.095Z,87.51
2023-03-07T02:50:35.705Z,87.73
2023-03-07T02:51:39.170Z,87.92
2023-03-07T02:52:42.059Z,87.43
2023-03-07T02:53:46.201Z,87.60
2023-03-07T02:54:49.316Z,87.71
2023-03-07T02:55:53.106Z,87.49
2023-03-07T02:56:56.120Z,87.45
2023-03-07T02:57:59.097Z,87.81
2023-03-07T02:59:01.980Z,87.77
2023-03-07T03:00:10.820Z,87.86
2023-03-07T03:01:14.084Z,87.22
2023-03-07T03:02:17.344Z,86.74
2023-03-07T03:03:20.276Z,86.88
2023-03-07T03:04:23.460Z,87.28
2023-03-07T03:05:26.600Z,87.30
2023-03-07T03:06:29.605Z,87.20
2023-03-07T03:07:32.787Z,87.48
2023-03-07T03:08:35.879Z,87.68
2023-03-07T03:09:38.768Z,87.64
2023-03-07T03:10:41.908Z,87.83
2023-03-07T03:11:44.931Z,87.52
2023-03-07T03:12:47.969Z,87.69
2023-03-07T03:13:50.952Z,87.73
2023-03-07T03:14:53.899Z,87.40
2023-03-07T03:15:57.778Z,87.88
2023-03-07T03:17:00.702Z,88.17
2023-03-07T03:18:03.610Z,88.96
2023-03-07T03:19:07.092Z,89.05
2023-03-07T03:20:13.424Z,88.73
2023-03-07T03:21:16.374Z,88.56
2023-03-07T03:22:20.672Z,88.52
2023-03-07T03:23:24.078Z,88.70
2023-03-07T03:24:27.016Z,88.54
2023-03-07T03:25:29.958Z,88.32
2023-03-07T03:26:33.988Z,88.53
2023-03-07T03:27:38.206Z,88.50
2023-03-07T03:28:41.721Z,88.14
2023-03-07T03:29:44.959Z,88.34
2023-03-07T03:31:00.817Z,88.33
2023-03-07T03:32:04.243Z,88.03
2023-03-07T03:33:07.139Z,88.01
2023-03-07T03:34:09.948Z,88.05
2023-03-07T03:35:15.095Z,88.03
2023-03-07T03:36:19.546Z,88.20
2023-03-07T03:37:22.583Z,88.49
2023-03-07T03:38:27.219Z,88.55
2023-03-07T03:39:30.227Z,88.33
2023-03-07T03:40:33.376Z,87.93
2023-03-07T03:41:36.290Z,87.85
2023-03-07T03:42:39.175Z,87.60
2023-03-07T03:43:43.212Z,87.29
2023-03-07T03:44:46.337Z,87.14
2023-03-07T03:45:56.412Z,86.78
2023-03-07T03:46:59.530Z,86.72
2023-03-07T03:48:02.458Z,87.01
2023-03-07T03:49:05.590Z,87.38
2023-03-07T03:50:09.237Z,87.24
2023-03-07T03:51:16.964Z,86.95
2023-03-07T03:52:21.165Z,87.06
2023-03-07T03:53:24.357Z,86.25
2023-03-07T03:54:27.541Z,86.03
2023-03-07T03:55:30.742Z,86.42
2023-03-07T03:56:33.974Z,86.16
2023-03-07T03:57:36.945Z,86.17
2023-03-07T03:58:41.104Z,86.63
2023-03-07T03:59:45.416Z,87.07
2023-03-07T04:00:48.336Z,86.96
2023-03-07T04:01:51.635Z,86.59
2023-03-07T04:02:54.919Z,86.13
2023-03-07T04:03:58.437Z,86.12
2023-03-07T04:05:01.538Z,85.92
2023-03-07T04:06:07.344Z,85.74
2023-03-07T04:07:10.515Z,86.04
2023-03-07T04:08:13.700Z,86.85
2023-03-07T04:09:16.784Z,86.87
2023-03-07T04:10:19.799Z,86.73
2023-03-07T04:11:24.421Z,86.49
2023-03-07T04:12:27.554Z,86.46
2023-03-07T04:13:31.205Z,86.71
2023-03-07T04:14:34.126Z,87.12
2023-03-07T04:15:37.488Z,87.37
2023-03-07T04:16:40.548Z,87.30
2023-03-07T04:17:43.612Z,86.81
2023-03-07T04:18:46.634Z,86.77
2023-03-07T04:19:49.649Z,86.86
2023-03-07T04:20:53.201Z,86.74
2023-03-07T04:21:56.125Z,86.52
2023-03-07T04:22:59.002Z,86.78
2023-03-07T04:24:01.945Z,86.72
2023-03-07T04:25:05.127Z,86.76
2023-03-07T04:26:10.003Z,87.17
2023-03-07T04:27:12.959Z,86.85
2023-03-07T04:28:18.112Z,86.86
2023-03-07T04:29:21.225Z,86.64
2023-03-07T04:30:24.646Z,86.54
2023-03-07T04:31:28.526Z,86.42
2023-03-07T04:32:31.812Z,87.02
2023-03-07T04:33:34.733Z,87.11
2023-03-07T04:34:37.645Z,87.11
2023-03-07T04:35:40.578Z,86.67
2023-03-07T04:36:43.839Z,86.36
2023-03-07T04:37:46.805Z,86.07
2023-03-07T04:38:50.495Z,86.16
2023-03-07T04:39:53.534Z,85.79
2023-03-07T04:40:56.589Z,85.93
2023-03-07T04:41:59.553Z,85.90
2023-03-07T04:43:02.535Z,85.67
2023-03-07T04:44:05.582Z,85.77
2023-03-07T04:45:09.189Z,85.53
2023-03-07T04:46:14.593Z,84.56
2023-03-07T04:47:17.654Z,84.70
2023-03-07T04:48:20.818Z,84.79
2023-03-07T04:49:24.086Z,84.83
2023-03-07T04:50:27.214Z,84.55
2023-03-07T04:51:30.595Z,84.69
2023-03-07T04:52:33.701Z,84.46
2023-03-07T04:53:37.043Z,84.28
2023-03-07T04:54:41.120Z,83.81
2023-03-07T04:55:44.559Z,83.94
2023-03-07T04:56:47.565Z,83.85
2023-03-07T04:57:52.309Z,83.87
2023-03-07T04:58:55.311Z,83.99
2023-03-07T04:59:58.250Z,83.92
2023-03-07T05:01:03.014Z,83.55
2023-03-07T05:02:12.077Z,83.79
2023-03-07T05:03:15.696Z,83.75
2023-03-07T05:04:18.705Z,83.59
2023-03-07T05:05:21.713Z,83.23
2023-03-07T05:06:25.016Z,82.42
2023-03-07T05:07:30.246Z,83.17
2023-03-07T05:08:34.300Z,83.32
2023-03-07T05:09:37.357Z,83.28
2023-03-07T05:10:40.535Z,82.45
2023-03-07T05:11:43.468Z,82.82
2023-03-07T05:12:46.235Z,83.12
2023-03-07T05:13:49.096Z,82.59
2023-03-07T05:14:51.959Z,82.34
2023-03-07T05:15:56.671Z,82.07
2023-03-07T05:16:59.549Z,82.38
2023-03-07T05:18:02.880Z,82.27
2023-03-07T05:19:07.055Z,82.40
2023-03-07T05:20:13.645Z,81.85
2023-03-07T05:21:16.729Z,81.60
2023-03-07T05:22:19.693Z,81.72
2023-03-07T05:23:22.983Z,81.27
2023-03-07T05:24:25.991Z,81.12
2023-03-07T05:25:28.932Z,80.99
2023-03-07T05:26:31.774Z,81.33
2023-03-07T05:27:34.893Z,81.49
2023-03-07T05:28:38.238Z,81.85
2023-03-07T05:29:41.214Z,82.15
2023-03-07T05:30:47.945Z,81.91
2023-03-07T05:31:51.243Z,82.26
2023-03-07T05:32:54.259Z,82.22
2023-03-07T05:33:57.057Z,82.42
2023-03-07T05:34:59.990Z,82.56
2023-03-07T05:36:04.030Z,82.79
2023-03-07T05:37:06.999Z,83.69
2023-03-07T05:38:10.560Z,83.93
2023-03-07T05:39:15.773Z,83.83
2023-03-07T05:40:19.573Z,83.38
2023-03-07T05:41:23.105Z,83.12
2023-03-07T05:42:26.897Z,82.99
2023-03-07T05:43:29.887Z,82.75
2023-03-07T05:44:34.150Z,82.81
2023-03-07T05:45:37.763Z,83.00
2023-03-07T05:46:40.567Z,82.66
2023-03-07T05:47:43.809Z,81.74
2023-03-07T05:48:47.104Z,82.08
2023-03-07T05:49:49.994Z,82.12
2023-03-07T05:51:00.443Z,82.15
2023-03-07T05:52:03.705Z,82.04
2023-03-07T05:53:06.877Z,81.98
2023-03-07T05:54:09.705Z,81.56
2023-03-07T05:55:12.559Z,81.95
2023-03-07T05:56:15.465Z,81.95
2023-03-07T05:57:18.645Z,82.04
2023-03-07T05:58:21.627Z,81.90
2023-03-07T05:59:24.648Z,81.82
2023-03-07T06:00:28.042Z,81.69
2023-03-07T06:01:31.207Z,81.80
2023-03-07T06:02:36.589Z,81.91
2023-03-07T06:03:39.551Z,81.57
2023-03-07T06:04:42.519Z,81.33
2023-03-07T06:05:45.441Z,81.07
2023-03-07T06:06:48.252Z,80.98
2023-03-07T06:07:51.420Z,80.84
2023-03-07T06:08:54.458Z,80.85
2023-03-07T06:09:57.471Z,81.18
2023-03-07T06:11:00.631Z,81.45
2023-03-07T06:12:04.376Z,81.71
2023-03-07T06:13:07.328Z,81.78
2023-03-07T06:14:10.342Z,81.57
2023-03-07T06:15:13.361Z,81.85
2023-03-07T06:16:16.403Z,81.71
2023-03-07T06:17:19.434Z,81.44
2023-03-07T06:18:24.321Z,81.38
2023-03-07T06:19:28.125Z,81.14
2023-03-07T06:20:30.951Z,81.33
2023-03-07T06:21:33.788Z,81.83
2023-03-07T06:22:38.497Z,82.05
2023-03-07T06:23:41.590Z,81.83
2023-03-07T06:24:44.787Z,81.96
2023-03-07T06:25:47.685Z,82.38
2023-03-07T06:26:50.514Z,81.72
2023-03-07T06:28:00.130Z,81.18
2023-03-07T06:29:05.144Z,81.00
2023-03-07T06:30:09.549Z,81.05
2023-03-07T06:31:15.968Z,81.01
2023-03-07T06:32:18.968Z,80.28
2023-03-07T06:33:21.969Z,79.97
2023-03-07T06:34:25.058Z,79.70
2023-03-07T06:35:28.479Z,79.50
2023-03-07T06:36:31.390Z,79.27
2023-03-07T06:37:34.444Z,79.31
2023-03-07T06:38:37.535Z,79.24
2023-03-07T06:39:40.355Z,79.19
2023-03-07T06:40:43.481Z,78.95
2023-03-07T06:41:48.662Z,78.39
2023-03-07T06:42:53.945Z,77.28
2023-03-07T06:43:57.008Z,76.71
2023-03-07T06:44:59.912Z,76.87
2023-03-07T06:46:03.483Z,76.50
2023-03-07T06:47:06.935Z,75.81
2023-03-07T06:48:09.827Z,76.20
2023-03-07T06:49:12.999Z,76.53
2023-03-07T06:50:19.225Z,77.94
2023-03-07T06:51:24.243Z,78.73
2023-03-07T06:52:27.208Z,78.99
2023-03-07T06:53:30.230Z,78.16
2023-03-07T06:54:33.315Z,77.28
2023-03-07T06:55:36.283Z,76.44
2023-03-07T06:56:39.190Z,76.48
2023-03-07T06:57:42.638Z,75.87
2023-03-07T06:58:46.112Z,76.41
2023-03-07T06:59:49.249Z,76.50
2023-03-07T07:00:52.339Z,76.93
2023-03-07T07:01:55.532Z,77.01
2023-03-07T07:02:58.801Z,74.40
2023-03-07T07:04:01.885Z,73.14
2023-03-07T07:05:05.642Z,71.80
2023-03-07T07:06:08.805Z,71.77
2023-03-07T07:07:11.710Z,71.89
2023-03-07T07:08:14.575Z,72.26
2023-03-07T07:09:17.461Z,73.22
2023-03-07T07:10:20.388Z,72.84
2023-03-07T07:11:24.014Z,72.65
2023-03-07T07:12:26.926Z,72.23
2023-03-07T07:13:29.814Z,72.45
2023-03-07T07:14:35.549Z,71.24
2023-03-07T07:15:38.488Z,71.30
2023-03-07T07:16:41.411Z,71.11
2023-03-07T07:17:44.279Z,71.77
2023-03-07T07:18:47.434Z,71.53
2023-03-07T07:19:50.778Z,71.13
2023-03-07T07:20:55.711Z,69.56
2023-03-07T07:21:59.000Z,69.59
2023-03-07T07:23:01.940Z,69.24
2023-03-07T07:24:05.269Z,69.08
2023-03-07T07:25:08.601Z,69.76
2023-03-07T07:26:12.327Z,69.71
2023-03-07T07:27:15.285Z,68.97
2023-03-07T07:28:18.364Z,69.70
2023-03-07T07:29:21.626Z,69.72
2023-03-07T07:30:25.340Z,70.17
2023-03-07T07:31:28.592Z,69.35
2023-03-07T07:32:31.776Z,70.30
2023-03-07T07:33:37.396Z,71.30
2023-03-07T07:34:40.589Z,71.71
2023-03-07T07:35:47.227Z,70.89
2023-03-07T07:36:50.556Z,71.34
2023-03-07T07:37:53.621Z,71.07
2023-03-07T07:38:56.587Z,71.40
2023-03-07T07:39:59.669Z,71.54
2023-03-07T07:41:02.852Z,71.72
2023-03-07T07:42:05.874Z,71.43
2023-03-07T07:43:15.253Z,70.46
2023-03-07T07:44:18.259Z,70.76
2023-03-07T07:45:22.274Z,70.83
2023-03-07T07:46:26.064Z,70.80
2023-03-07T07:47:29.202Z,70.83
2023-03-07T07:48:32.603Z,70.33
2023-03-07T07:49:35.989Z,69.37
2023-03-07T07:50:39.329Z,69.65
2023-03-07T07:51:42.506Z,69.73
2023-03-07T07:52:46.130Z,70.03
2023-03-07T07:53:49.021Z,69.74
2023-03-07T07:54:52.367Z,68.43
2023-03-07T07:55:55.316Z,67.31
2023-03-07T07:56:58.448Z,67.67
2023-03-07T07:58:01.403Z,68.05
2023-03-07T07:59:04.384Z,67.08
2023-03-07T08:00:09.264Z,67.59
2023-03-07T08:01:17.565Z,67.32
2023-03-07T08:02:20.929Z,67.21
2023-03-07T08:03:23.871Z,67.60
2023-03-07T08:04:26.787Z,67.98
2023-03-07T08:05:29.672Z,68.32
2023-03-07T08:06:32.552Z,67.31
2023-03-07T08:07:35.613Z,67.32
2023-03-07T08:08:39.261Z,68.14
2023-03-07T08:09:42.248Z,67.71
2023-03-07T08:10:49.139Z,65.12
2023-03-07T08:11:52.406Z,63.67
2023-03-07T08:12:55.530Z,64.52
2023-03-07T08:13:58.424Z,65.38
2023-03-07T08:15:01.396Z,65.81
2023-03-07T08:16:16.514Z,65.42
2023-03-07T08:17:19.436Z,64.37
2023-03-07T08:18:24.137Z,65.45
2023-03-07T08:19:27.290Z,65.97
2023-03-07T08:20:30.126Z,65.51
2023-03-07T08:21:32.965Z,65.59
2023-03-07T08:22:39.638Z,65.00
2023-03-07T08:23:42.493Z,65.61
2023-03-07T08:24:46.100Z,64.74
2023-03-07T08:25:50.511Z,65.24
2023-03-07T08:26:53.476Z,64.76
2023-03-07T08:27:57.378Z,64.93
2023-03-07T08:29:00.276Z,65.46
2023-03-07T08:30:03.583Z,63.71
2023-03-07T08:31:12.342Z,64.52
2023-03-07T08:32:15.732Z,65.29
2023-03-07T08:33:18.534Z,65.42
2023-03-07T08:34:21.474Z,64.08
2023-03-07T08:35:25.489Z,63.14
2023-03-07T08:36:28.513Z,62.60
2023-03-07T08:37:31.744Z,62.61
2023-03-07T08:38:35.631Z,62.75
2023-03-07T08:39:38.545Z,63.75
2023-03-07T08:40:41.745Z,63.19
2023-03-07T08:41:44.729Z,63.62
2023-03-07T08:42:47.888Z,63.26
2023-03-07T08:43:54.194Z,62.07
2023-03-07T08:44:57.271Z,62.24
2023-03-07T08:46:00.675Z,60.07
2023-03-07T08:47:03.865Z,58.05
2023-03-07T08:48:07.085Z,56.25
2023-03-07T08:49:10.000Z,57.20
2023-03-07T08:50:13.137Z,58.08
2023-03-07T08:51:17.956Z,58.52
2023-03-07T08:52:24.283Z,58.35
2023-03-07T08:53:27.195Z,57.69
2023-03-07T08:54:30.210Z,57.60
2023-03-07T08:55:36.039Z,58.26
2023-03-07T08:56:39.095Z,59.87
2023-03-07T08:57:42.088Z,59.93
2023-03-07T08:58:45.121Z,60.17
2023-03-07T08:59:48.065Z,60.54
2023-03-07T09:00:51.145Z,60.59
2023-03-07T09:01:55.626Z,60.48
2023-03-07T09:02:59.019Z,60.45
2023-03-07T09:04:05.082Z,60.67
2023-03-07T09:05:08.575Z,59.49
2023-03-07T09:06:20.404Z,59.67
2023-03-07T09:07:23.264Z,59.81
2023-03-07T09:08:26.435Z,61.64
2023-03-07T09:09:30.322Z,61.72
2023-03-07T09:10:34.671Z,62.25
2023-03-07T09:11:37.803Z,60.70
2023-03-07T09:12:40.605Z,60.47
2023-03-07T09:13:51.924Z,61.40
2023-03-07T09:14:56.250Z,61.69
2023-03-07T09:15:59.253Z,62.48
2023-03-07T09:17:03.167Z,62.77
2023-03-07T09:18:07.095Z,62.52
2023-03-07T09:19:10.378Z,62.33
2023-03-07T09:20:14.064Z,63.32
2023-03-07T09:21:17.675Z,61.67
2023-03-07T09:22:20.705Z,60.79
2023-03-07T09:23:24.092Z,60.51
2023-03-07T09:24:27.580Z,60.26
2023-03-07T09:25:30.662Z,60.94
2023-03-07T09:26:34.367Z,59.90
2023-03-07T09:27:37.444Z,59.47
2023-03-07T09:28:40.736Z,59.20
2023-03-07T09:29:43.842Z,58.74
2023-03-07T09:30:46.806Z,58.46
2023-03-07T09:31:51.331Z,58.79
2023-03-07T09:32:54.219Z,58.27
2023-03-07T09:33:58.843Z,58.42
2023-03-07T09:35:01.784Z,57.97
2023-03-07T09:36:06.637Z,57.04
2023-03-07T09:37:11.258Z,56.78
2023-03-07T09:38:14.842Z,57.04
2023-03-07T09:39:18.221Z,56.22
2023-03-07T09:40:26.124Z,55.37
2023-03-07T09:41:42.195Z,55.60
2023-03-07T09:42:57.225Z,55.96
2023-03-07T09:44:23.980Z,55.64
2023-03-07T09:46:04.180Z,56.29
2023-03-07T09:47:19.022Z,53.93
2023-03-07T09:48:43.843Z,54.02
2023-03-07T09:49:50.842Z,55.25
2023-03-07T09:51:05.258Z,54.16
2023-03-07T09:52:17.597Z,53.75
2023-03-07T09:53:47.121Z,52.92
2023-03-07T09:55:13.785Z,53.09
2023-03-07T09:56:25.557Z,53.20
2023-03-07T09:57:34.860Z,51.39
2023-03-07T09:58:42.925Z,51.46
2023-03-07T09:59:51.177Z,50.57
2023-03-07T10:01:01.867Z,50.84
2023-03-07T10:02:21.159Z,51.74
2023-03-07T10:03:42.228Z,51.06
2023-03-07T10:04:53.803Z,50.79
2023-03-07T10:06:09.514Z,50.57
2023-03-07T10:07:16.160Z,48.19
2023-03-07T10:08:26.806Z,48.42
2023-03-07T10:09:30.433Z,49.66
2023-03-07T10:10:49.180Z,49.58
2023-03-07T10:11:58.035Z,49.02
2023-03-07T10:13:00.798Z,48.56
2023-03-07T10:14:40.900Z,47.23
2023-03-07T10:15:52.816Z,46.95
2023-03-07T10:17:13.035Z,47.05
2023-03-07T10:18:36.791Z,46.53
2023-03-07T10:19:50.039Z,46.15
2023-03-07T10:21:05.193Z,45.66
2023-03-07T10:22:27.498Z,44.87
2023-03-07T10:24:04.340Z,45.44
2023-03-07T10:25:13.344Z,44.57
2023-03-07T10:26:30.421Z,43.71
2023-03-07T10:27:33.652Z,44.12
2023-03-07T10:28:42.389Z,44.06
2023-03-07T10:29:49.686Z,44.11
2023-03-07T10:30:59.037Z,43.51
2023-03-07T10:32:14.248Z,43.78
2023-03-07T10:33:21.059Z,44.28
2023-03-07T10:34:32.437Z,44.52
2023-03-07T10:35:44.016Z,44.30
2023-03-07T10:37:00.034Z,44.80
2023-03-07T10:38:40.483Z,45.22
2023-03-07T10:39:52.546Z,44.33
2023-03-07T10:41:00.330Z,44.47
2023-03-07T10:42:03.299Z,44.96
2023-03-07T10:43:06.597Z,44.90
2023-03-07T10:44:20.932Z,45.14
2023-03-07T10:45:24.111Z,46.17
2023-03-07T10:46:30.531Z,47.11
2023-03-07T10:47:33.696Z,47.72
2023-03-07T10:48:38.905Z,48.06
2023-03-07T10:49:47.293Z,48.52
2023-03-07T10:51:01.651Z,46.86
2023-03-07T10:52:29.570Z,47.09
2023-03-07T10:53:35.770Z,47.17
2023-03-07T10:54:39.551Z,47.78
2023-03-07T10:55:44.596Z,47.87
2023-03-07T10:57:17.862Z,47.34
2023-03-07T10:58:28.466Z,47.39
2023-03-07T10:59:32.318Z,47.09
2023-03-07T11:00:35.252Z,46.83
2023-03-07T11:01:51.789Z,47.72
2023-03-07T11:02:56.782Z,47.81
2023-03-07T11:04:08.437Z,48.54
2023-03-07T11:05:36.765Z,48.00
2023-03-07T11:06:42.537Z,46.69
2023-03-07T11:07:45.460Z,46.13
2023-03-07T11:08:48.447Z,46.56
2023-03-07T11:09:51.709Z,47.20
2023-03-07T11:10:55.448Z,46.15
2023-03-07T11:12:05.923Z,46.53
2023-03-07T11:13:17.426Z,47.12
2023-03-07T11:14:22.086Z,47.01
2023-03-07T11:15:26.432Z,47.35
2023-03-07T11:16:29.408Z,47.76
2023-03-07T11:17:41.409Z,48.64
2023-03-07T11:18:46.081Z,48.84
2023-03-07T11:19:53.153Z,49.22
2023-03-07T11:20:57.030Z,50.94
2023-03-07T11:22:04.078Z,50.79
2023-03-07T11:23:23.832Z,50.18
2023-03-07T11:24:30.267Z,50.58
2023-03-07T11:25:36.638Z,50.81
2023-03-07T11:26:41.523Z,49.97
2023-03-07T11:27:58.737Z,49.94
2023-03-07T11:29:08.586Z,49.64
2023-03-07T11:30:22.433Z,49.46
2023-03-07T11:31:45.544Z,50.42
2023-03-07T11:33:09.153Z,50.51
2023-03-07T11:34:21.160Z,51.02
2023-03-07T11:35:49.482Z,51.59
2023-03-07T11:37:03.788Z,52.43
2023-03-07T11:38:19.544Z,51.84
2023-03-07T11:39:37.737Z,52.37
2023-03-07T11:40:57.894Z,52.95
2023-03-07T11:42:04.773Z,53.64
2023-03-07T11:43:30.954Z,53.74
2023-03-07T11:44:44.836Z,53.30
2023-03-07T11:46:23.550Z,54.03
2023-03-07T11:47:42.293Z,54.56
2023-03-07T11:48:53.809Z,56.05
2023-03-07T11:50:20.627Z,56.99
2023-03-07T11:51:48.798Z,58.94
2023-03-07T11:53:21.735Z,59.95
2023-03-07T11:54:55.127Z,60.41
2023-03-07T11:56:16.200Z,60.68
2023-03-07T11:57:45.051Z,61.82
2023-03-07T11:58:51.075Z,63.17
2023-03-07T12:00:22.487Z,64.47
2023-03-07T12:01:27.927Z,64.61
2023-03-07T12:02:45.996Z,64.32
2023-03-07T12:04:16.898Z,64.92
2023-03-07T12:05:53.180Z,65.02
2023-03-07T12:07:14.329Z,65.28
2023-03-07T12:08:55.001Z,65.04
2023-03-07T12:10:07.007Z,65.27
2023-03-07T12:11:36.641Z,64.58
2023-03-07T12:12:39.370Z,64.71
2023-03-07T12:13:50.190Z,65.27
2023-03-07T12:14:52.870Z,65.86
2023-03-07T12:16:04.802Z,65.36
2023-03-07T12:17:28.203Z,64.91
2023-03-07T12:19:16.476Z,64.41
2023-03-07T12:20:28.668Z,64.00
2023-03-07T12:21:46.581Z,64.00
2023-03-07T12:23:05.408Z,63.95
2023-03-07T12:24:23.907Z,63.46
2023-03-07T12:25:34.316Z,63.42
2023-03-07T12:26:49.681Z,63.98
2023-03-07T12:28:17.387Z,62.86
2023-03-07T12:29:29.217Z,63.13
2023-03-07T12:30:37.993Z,63.03
2023-03-07T12:31:47.705Z,62.02
2023-03-07T12:32:51.785Z,62.33
2023-03-07T12:34:06.018Z,61.81
2023-03-07T12:35:21.363Z,61.86
2023-03-07T12:36:59.764Z,62.82
2023-03-07T12:38:25.684Z,62.40
2023-03-07T12:39:39.263Z,62.33
2023-03-07T12:40:51.277Z,62.12
2023-03-07T12:42:15.519Z,62.38
2023-03-07T12:43:38.028Z,62.69
2023-03-07T12:44:50.697Z,63.50
2023-03-07T12:46:08.256Z,63.17
2023-03-07T12:47:32.729Z,63.67
2023-03-07T12:48:46.569Z,64.15
2023-03-07T12:49:55.880Z,64.11
2023-03-07T12:51:09.779Z,64.46
2023-03-07T12:52:37.368Z,64.02
2023-03-07T12:53:46.283Z,63.87
2023-03-07T12:55:02.654Z,63.84
2023-03-07T12:56:15.662Z,63.75
2023-03-07T12:57:27.664Z,63.01
2023-03-07T12:58:51.267Z,63.06
2023-03-07T13:00:00.734Z,63.77
2023-03-07T13:01:10.507Z,63.62
2023-03-07T13:02:22.520Z,64.18
2023-03-07T13:04:09.519Z,64.18
2023-03-07T13:05:21.684Z,64.34
2023-03-07T13:06:25.942Z,65.09
2023-03-07T13:07:32.241Z,64.59
2023-03-07T13:08:36.504Z,64.71
2023-03-07T13:09:43.528Z,64.94
2023-03-07T13:10:49.902Z,65.33
2023-03-07T13:12:25.759Z,65.80
2023-03-07T13:13:43.715Z,66.82
2023-03-07T13:14:51.719Z,66.56
2023-03-07T13:16:05.899Z,66.90
2023-03-07T13:17:13.700Z,67.13
2023-03-07T13:18:29.061Z,67.70
2023-03-07T13:19:35.402Z,68.12
2023-03-07T13:20:43.497Z,67.87
2023-03-07T13:21:46.933Z,67.58
2023-03-07T13:22:49.952Z,68.07
2023-03-07T13:24:45.818Z,68.39
2023-03-07T13:26:11.439Z,68.55
2023-03-07T13:27:20.123Z,68.89
2023-03-07T13:28:34.192Z,68.49
2023-03-07T13:30:31.390Z,68.98
2023-03-07T13:31:41.585Z,68.87
2023-03-07T13:32:56.393Z,68.62
2023-03-07T13:34:44.305Z,68.33
2023-03-07T13:35:59.017Z,67.60
2023-03-07T13:37:40.916Z,67.95
2023-03-07T13:38:46.966Z,68.41
2023-03-07T13:40:03.048Z,68.63
2023-03-07T13:41:09.232Z,68.94
2023-03-07T13:42:46.839Z,68.44
2023-03-07T13:43:49.920Z,69.26
2023-03-07T13:44:52.978Z,69.01
2023-03-07T13:45:58.389Z,69.18
2023-03-07T13:47:05.208Z,69.96
2023-03-07T13:48:20.188Z,69.16
2023-03-07T13:49:52.294Z,69.70
2023-03-07T13:50:55.312Z,70.26
2023-03-07T13:52:17.991Z,70.45
2023-03-07T13:53:37.075Z,70.10
2023-03-07T13:54:42.493Z,70.45
2023-03-07T13:55:48.078Z,71.15
2023-03-07T13:56:52.051Z,71.17
2023-03-07T13:57:57.031Z,70.89
2023-03-07T13:59:17.320Z,70.94
2023-03-07T14:00:27.893Z,71.12
2023-03-07T14:01:37.217Z,70.80
2023-03-07T14:02:43.916Z,70.59
2023-03-07T14:04:14.291Z,70.57
2023-03-07T14:05:17.998Z,70.55
2023-03-07T14:06:27.630Z,70.33
2023-03-07T14:07:36.109Z,71.16
2023-03-07T14:08:39.831Z,70.95
2023-03-07T14:09:48.279Z,70.98
2023-03-07T14:10:51.391Z,70.91
2023-03-07T14:12:08.338Z,70.78
2023-03-07T14:13:17.135Z,71.70
2023-03-07T14:15:05.730Z,71.94
2023-03-07T14:16:14.688Z,72.35
2023-03-07T14:18:12.704Z,72.12
2023-03-07T14:19:47.893Z,71.39
2023-03-07T14:20:57.864Z,72.53
2023-03-07T14:22:11.036Z,72.99
2023-03-07T14:23:25.990Z,72.91
2023-03-07T14:24:50.775Z,73.00
2023-03-07T14:26:16.897Z,73.03
2023-03-07T14:27:20.404Z,72.73
2023-03-07T14:28:29.722Z,72.52
2023-03-07T14:29:33.974Z,71.51